createdAt,value
2019-02-26T00:00:49.487Z,4.70
2019-02-26T00:03:23.915Z,4.80
2019-02-26T00:05:54.892Z,4.70
2019-02-26T00:08:29.097Z,4.60
2019-02-26T00:11:01.278Z,4.70
2019-02-26T00:13:44.802Z,4.60
2019-02-26T00:16:18.381Z,4.60
2019-02-26T00:18:49.181Z,4.60
2019-02-26T00:21:22.647Z,4.60
2019-02-26T00:23:53.501Z,4.40
2019-02-26T00:26:25.013Z,4.30
2019-02-26T00:28:57.333Z,4.20
2019-02-26T00:31:30.445Z,4.10
2019-02-26T00:34:02.042Z,4.10
2019-02-26T00:36:34.306Z,4.10
2019-02-26T00:39:07.760Z,4.00
2019-02-26T00:41:40.437Z,4.00
2019-02-26T00:44:11.695Z,4.00
2019-02-26T00:46:42.981Z,4.00
2019-02-26T00:49:14.038Z,4.00
2019-02-26T00:51:46.508Z,4.00
2019-02-26T00:54:20.177Z,3.90
2019-02-26T00:56:51.354Z,3.90
2019-02-26T00:59:22.575Z,3.90
2019-02-26T01:01:54.867Z,3.90
2019-02-26T01:04:26.819Z,3.90
2019-02-26T01:06:59.130Z,3.80
2019-02-26T01:09:31.924Z,3.70
2019-02-26T01:12:04.274Z,3.80
2019-02-26T01:14:36.411Z,3.70
2019-02-26T01:17:09.848Z,3.70
2019-02-26T01:19:42.883Z,3.80
2019-02-26T01:22:13.888Z,3.80
2019-02-26T01:24:45.005Z,3.70
2019-02-26T01:27:16.249Z,3.60
2019-02-26T01:29:51.226Z,3.60
2019-02-26T01:32:22.313Z,3.60
2019-02-26T01:34:53.378Z,3.70
2019-02-26T01:37:25.364Z,3.60
2019-02-26T01:39:57.665Z,3.70
2019-02-26T01:42:31.214Z,3.60
2019-02-26T01:45:01.825Z,3.70
2019-02-26T01:47:33.190Z,3.70
2019-02-26T01:50:07.118Z,3.60
2019-02-26T01:52:39.273Z,3.60
2019-02-26T01:55:11.332Z,3.60
2019-02-26T01:57:43.734Z,3.50
2019-02-26T02:00:16.153Z,3.60
2019-02-26T02:02:47.844Z,3.60
2019-02-26T02:05:19.731Z,3.60
2019-02-26T02:07:53.552Z,3.60
2019-02-26T02:10:24.545Z,3.50
2019-02-26T02:12:59.569Z,3.40
2019-02-26T02:15:28.911Z,3.30
2019-02-26T02:18:01.767Z,3.30
2019-02-26T02:20:33.283Z,3.20
2019-02-26T02:23:05.341Z,3.20
2019-02-26T02:25:38.758Z,3.20
2019-02-26T02:28:10.566Z,3.20
2019-02-26T02:30:41.787Z,3.20
2019-02-26T02:33:17.257Z,3.20
2019-02-26T02:35:46.019Z,3.10
2019-02-26T02:38:20.495Z,3.10
2019-02-26T02:40:52.758Z,3.10
2019-02-26T02:43:23.626Z,3.10
2019-02-26T02:45:56.414Z,3.20
2019-02-26T02:48:28.001Z,3.20
2019-02-26T02:50:59.619Z,3.20
2019-02-26T02:53:32.465Z,3.20
2019-02-26T02:56:05.799Z,3.20
2019-02-26T02:58:38.537Z,3.20
2019-02-26T03:01:09.441Z,2.80
2019-02-26T03:03:40.920Z,2.60
2019-02-26T03:06:12.390Z,2.60
2019-02-26T03:08:45.293Z,2.60
2019-02-26T03:11:17.072Z,2.50
2019-02-26T03:13:50.721Z,2.40
2019-02-26T03:16:21.994Z,2.30
2019-02-26T03:18:54.356Z,2.20
2019-02-26T03:21:27.723Z,2.20
2019-02-26T03:24:00.921Z,2.20
2019-02-26T03:26:31.796Z,2.20
2019-02-26T03:29:03.342Z,2.30
2019-02-26T03:31:39.706Z,2.40
2019-02-26T03:34:10.403Z,2.40
2019-02-26T03:36:42.851Z,2.50
2019-02-26T03:39:13.639Z,2.40
2019-02-26T03:41:46.050Z,2.40
2019-02-26T03:44:18.083Z,2.40
2019-02-26T03:46:49.279Z,2.50
2019-02-26T03:49:20.672Z,2.50
2019-02-26T03:51:51.751Z,2.50
2019-02-26T03:54:23.066Z,2.60
2019-02-26T03:56:54.143Z,2.60
2019-02-26T03:59:25.294Z,2.60
2019-02-26T04:01:56.579Z,2.60
2019-02-26T04:04:30.467Z,2.60
2019-02-26T04:07:01.446Z,2.70
2019-02-26T04:09:33.672Z,2.70
2019-02-26T04:12:04.798Z,2.60
2019-02-26T04:14:35.955Z,2.60
2019-02-26T04:17:08.889Z,2.60
2019-02-26T04:19:43.764Z,2.50
2019-02-26T04:22:33.099Z,2.50
2019-02-26T04:25:09.388Z,2.60
2019-02-26T04:28:02.618Z,2.70
2019-02-26T04:30:58.760Z,2.70
2019-02-26T04:34:04.409Z,2.60
2019-02-26T04:37:10.330Z,2.60
2019-02-26T04:40:16.718Z,2.50
2019-02-26T04:43:33.495Z,2.40
2019-02-26T04:46:25.565Z,2.40
2019-02-26T04:48:58.383Z,2.40
2019-02-26T04:51:29.869Z,2.40
2019-02-26T04:54:02.158Z,2.30
2019-02-26T04:56:35.995Z,2.30
2019-02-26T04:59:09.252Z,2.20
2019-02-26T05:01:39.267Z,2.30
2019-02-26T05:04:10.790Z,2.00
2019-02-26T05:06:42.161Z,2.00
2019-02-26T05:09:13.476Z,2.00
2019-02-26T05:11:44.542Z,2.00
2019-02-26T05:14:20.802Z,1.90
2019-02-26T05:16:48.497Z,1.90
2019-02-26T05:19:21.767Z,1.90
2019-02-26T05:21:53.448Z,1.90
2019-02-26T05:24:26.285Z,2.00
2019-02-26T05:26:57.807Z,2.00
2019-02-26T05:29:29.315Z,2.00
2019-02-26T05:32:01.746Z,2.10
2019-02-26T05:34:33.521Z,2.10
2019-02-26T05:37:07.505Z,2.00
2019-02-26T05:39:37.835Z,2.10
2019-02-26T05:42:08.897Z,2.00
2019-02-26T05:44:40.257Z,2.10
2019-02-26T05:47:12.994Z,2.10
2019-02-26T05:49:45.818Z,2.20
2019-02-26T05:52:17.377Z,2.00
2019-02-26T05:54:48.830Z,1.80
2019-02-26T05:57:31.273Z,1.80
2019-02-26T05:59:52.954Z,1.60
2019-02-26T06:02:24.615Z,1.60
2019-02-26T06:04:56.381Z,1.60
2019-02-26T06:07:30.224Z,1.50
2019-02-26T06:10:01.636Z,1.40
2019-02-26T06:12:35.342Z,1.30
2019-02-26T06:15:08.185Z,1.30
2019-02-26T06:17:43.103Z,1.30
2019-02-26T06:20:17.989Z,1.30
2019-02-26T06:22:49.132Z,1.20
2019-02-26T06:25:24.071Z,1.20
2019-02-26T06:27:53.240Z,1.00
2019-02-26T06:30:24.444Z,0.90
2019-02-26T06:32:59.674Z,1.00
2019-02-26T06:35:28.650Z,0.90
2019-02-26T06:38:02.137Z,1.00
2019-02-26T06:40:36.684Z,1.10
2019-02-26T06:43:07.054Z,1.20
2019-02-26T06:45:41.058Z,1.40
2019-02-26T06:48:15.077Z,1.50
2019-02-26T06:50:45.565Z,1.50
2019-02-26T06:53:18.730Z,1.60
2019-02-26T06:55:49.778Z,1.70
2019-02-26T06:58:26.609Z,1.80
2019-02-26T07:00:59.354Z,1.80
2019-02-26T07:03:30.523Z,1.70
2019-02-26T07:06:04.769Z,1.70
2019-02-26T07:08:34.651Z,1.60
2019-02-26T07:11:07.496Z,1.70
2019-02-26T07:13:39.222Z,1.70
2019-02-26T07:16:11.639Z,1.70
2019-02-26T07:18:42.744Z,1.80
2019-02-26T07:21:14.032Z,2.00
2019-02-26T07:23:45.909Z,2.20
2019-02-26T07:26:18.512Z,2.20
2019-02-26T07:28:51.067Z,2.20
2019-02-26T07:31:24.271Z,2.10
2019-02-26T07:33:58.065Z,2.10
2019-02-26T07:36:29.401Z,2.40
2019-02-26T07:39:01.007Z,2.30
2019-02-26T07:41:33.954Z,2.40
2019-02-26T07:44:08.756Z,2.70
2019-02-26T07:46:40.148Z,2.70
2019-02-26T07:49:10.977Z,2.40
2019-02-26T07:51:43.044Z,2.40
2019-02-26T07:54:14.518Z,2.50
2019-02-26T07:56:46.756Z,2.60
2019-02-26T07:59:27.255Z,2.70
2019-02-26T08:01:50.885Z,2.90
2019-02-26T08:04:21.973Z,2.90
2019-02-26T08:06:54.861Z,3.00
2019-02-26T08:09:26.186Z,3.10
2019-02-26T08:11:57.621Z,3.40
2019-02-26T08:14:28.741Z,3.60
2019-02-26T08:17:01.923Z,3.60
2019-02-26T08:19:34.963Z,3.70
2019-02-26T08:22:05.994Z,3.90
2019-02-26T08:24:37.191Z,4.00
2019-02-26T08:27:11.067Z,4.20
2019-02-26T08:29:41.421Z,4.30
2019-02-26T08:32:15.934Z,4.20
2019-02-26T08:35:05.961Z,4.30
2019-02-26T08:37:37.197Z,4.10
2019-02-26T08:40:10.482Z,4.10
2019-02-26T08:42:41.817Z,4.20
2019-02-26T08:45:17.553Z,4.40
2019-02-26T08:47:48.319Z,4.70
2019-02-26T08:50:19.523Z,4.90
2019-02-26T08:52:53.486Z,5.00
2019-02-26T08:55:24.672Z,5.00
2019-02-26T08:57:56.557Z,5.20
2019-02-26T09:00:28.099Z,5.30
2019-02-26T09:02:59.830Z,5.30
2019-02-26T09:05:33.979Z,5.50
2019-02-26T09:08:05.648Z,5.70
2019-02-26T09:10:38.596Z,5.80
2019-02-26T09:13:11.423Z,6.10
2019-02-26T09:15:43.239Z,6.30
2019-02-26T09:18:14.729Z,6.60
2019-02-26T09:20:45.833Z,6.80
2019-02-26T09:23:20.811Z,6.90
2019-02-26T09:25:54.159Z,6.90
2019-02-26T09:28:24.859Z,7.00
2019-02-26T09:30:56.306Z,7.10
2019-02-26T09:33:32.668Z,7.20
2019-02-26T09:36:01.778Z,7.20
2019-02-26T09:38:33.174Z,7.10
2019-02-26T09:41:04.224Z,6.90
2019-02-26T09:43:36.196Z,7.10
2019-02-26T09:46:10.166Z,7.40
2019-02-26T09:48:43.338Z,7.60
2019-02-26T09:51:14.785Z,7.70
2019-02-26T09:53:49.367Z,8.00
2019-02-26T09:56:20.179Z,7.90
2019-02-26T09:58:51.857Z,8.00
2019-02-26T10:01:24.090Z,8.30
2019-02-26T10:03:56.090Z,8.30
2019-02-26T10:06:28.121Z,8.40
2019-02-26T10:08:59.495Z,8.70
2019-02-26T10:11:30.561Z,8.90
2019-02-26T10:14:02.932Z,9.10
2019-02-26T10:16:34.661Z,9.40
2019-02-26T10:19:07.698Z,9.60
2019-02-26T10:21:39.990Z,9.80
2019-02-26T10:24:11.897Z,9.90
2019-02-26T10:26:43.377Z,10.30
2019-02-26T10:29:14.583Z,10.50
2019-02-26T10:31:45.650Z,10.60
2019-02-26T10:34:20.392Z,11.00
2019-02-26T10:36:51.865Z,11.10
2019-02-26T10:39:23.687Z,11.20
2019-02-26T10:41:55.628Z,11.60
2019-02-26T10:44:30.298Z,11.60
2019-02-26T10:47:03.158Z,11.80
2019-02-26T10:49:34.496Z,12.20
2019-02-26T10:52:05.596Z,12.50
2019-02-26T10:54:40.365Z,12.50
2019-02-26T10:57:11.326Z,12.60
2019-02-26T10:59:44.941Z,12.90
2019-02-26T11:02:17.791Z,13.20
2019-02-26T11:04:50.395Z,13.10
2019-02-26T11:07:21.905Z,12.80
2019-02-26T11:09:55.548Z,13.70
2019-02-26T11:12:28.548Z,14.70
2019-02-26T11:15:01.709Z,15.90
2019-02-26T11:17:53.207Z,16.30
2019-02-26T11:20:36.134Z,17.20
2019-02-26T11:23:19.255Z,18.50
2019-02-26T11:25:50.549Z,18.80
2019-02-26T11:28:21.643Z,19.30
2019-02-26T11:30:54.822Z,19.50
2019-02-26T11:33:25.825Z,20.00
2019-02-26T11:36:16.222Z,21.30
2019-02-26T11:39:01.393Z,20.70
2019-02-26T11:41:35.766Z,20.80
2019-02-26T11:44:09.933Z,21.60
2019-02-26T11:46:39.743Z,22.00
2019-02-26T11:49:11.868Z,22.40
2019-02-26T11:51:43.976Z,22.30
2019-02-26T11:54:17.577Z,22.30
2019-02-26T11:56:49.805Z,22.20
2019-02-26T11:59:21.959Z,22.60
2019-02-26T12:01:54.199Z,23.40
2019-02-26T12:04:26.115Z,24.20
2019-02-26T12:07:01.042Z,25.10
2019-02-26T12:09:32.982Z,25.20
2019-02-26T12:12:06.209Z,24.60
2019-02-26T12:14:38.031Z,24.40
2019-02-26T12:17:10.177Z,24.70
2019-02-26T12:19:41.613Z,25.20
2019-02-26T12:22:12.956Z,26.20
2019-02-26T12:24:44.154Z,26.00
2019-02-26T12:27:18.154Z,25.40
2019-02-26T12:29:51.607Z,26.10
2019-02-26T12:32:22.322Z,26.60
2019-02-26T12:34:54.408Z,26.50
2019-02-26T12:37:44.753Z,26.00
2019-02-26T12:40:19.202Z,26.10
2019-02-26T12:42:49.061Z,26.10
2019-02-26T12:45:20.427Z,25.90
2019-02-26T12:47:54.922Z,26.40
2019-02-26T12:50:29.052Z,25.90
2019-02-26T12:52:58.136Z,26.10
2019-02-26T12:55:31.855Z,25.90
2019-02-26T12:58:02.366Z,26.30
2019-02-26T13:00:34.974Z,25.70
2019-02-26T13:03:09.340Z,26.00
2019-02-26T13:05:42.539Z,25.90
2019-02-26T13:08:16.319Z,25.30
2019-02-26T13:10:49.653Z,25.10
2019-02-26T13:13:18.425Z,25.30
2019-02-26T13:15:49.673Z,25.70
2019-02-26T13:18:20.962Z,25.30
2019-02-26T13:20:57.236Z,24.70
2019-02-26T13:23:25.237Z,24.70
2019-02-26T13:25:56.415Z,24.40
2019-02-26T13:28:29.719Z,24.20
2019-02-26T13:31:02.317Z,24.20
2019-02-26T13:33:37.007Z,24.30
2019-02-26T13:36:06.698Z,24.00
2019-02-26T13:38:44.634Z,24.70
2019-02-26T13:41:28.943Z,25.20
2019-02-26T13:43:43.903Z,26.00
2019-02-26T13:46:14.976Z,26.70
2019-02-26T13:48:46.369Z,27.30
2019-02-26T13:51:17.483Z,26.40
2019-02-26T13:53:48.960Z,26.40
2019-02-26T13:56:19.992Z,26.20
2019-02-26T13:58:51.450Z,26.80
2019-02-26T14:01:22.621Z,28.20
2019-02-26T14:03:54.162Z,28.80
2019-02-26T14:06:25.220Z,28.70
2019-02-26T14:08:56.965Z,29.30
2019-02-26T14:11:28.044Z,29.20
2019-02-26T14:13:59.455Z,29.50
2019-02-26T14:16:32.621Z,30.00
2019-02-26T14:19:03.688Z,30.30
2019-02-26T14:21:34.803Z,30.00
2019-02-26T14:24:06.136Z,30.90
2019-02-26T14:26:38.824Z,30.10
2019-02-26T14:29:10.294Z,31.00
2019-02-26T14:31:41.364Z,30.50
2019-02-26T14:34:12.942Z,29.70
2019-02-26T14:36:44.113Z,30.10
2019-02-26T14:39:16.030Z,29.80
2019-02-26T14:41:47.486Z,29.00
2019-02-26T14:44:19.025Z,29.60
2019-02-26T14:46:50.110Z,29.90
2019-02-26T14:49:21.534Z,28.20
2019-02-26T14:51:52.722Z,28.40
2019-02-26T14:54:23.892Z,28.50
2019-02-26T14:56:56.052Z,29.50
2019-02-26T14:59:27.780Z,29.80
2019-02-26T15:01:58.831Z,29.60
2019-02-26T15:04:30.129Z,30.10
2019-02-26T15:07:01.244Z,30.90
2019-02-26T15:09:32.532Z,30.70
2019-02-26T15:12:03.621Z,29.10
2019-02-26T15:14:34.792Z,29.60
2019-02-26T15:17:06.334Z,30.20
2019-02-26T15:19:49.199Z,31.50
2019-02-26T15:22:10.717Z,30.60
2019-02-26T15:24:42.055Z,30.90
2019-02-26T15:27:13.209Z,30.60
2019-02-26T15:29:44.549Z,30.70
2019-02-26T15:32:15.778Z,30.50
2019-02-26T15:34:47.239Z,30.30
2019-02-26T15:37:18.369Z,30.40
2019-02-26T15:39:51.300Z,29.80
2019-02-26T15:42:22.589Z,30.70
2019-02-26T15:44:54.073Z,29.40
2019-02-26T15:47:25.173Z,29.70
2019-02-26T15:49:56.469Z,28.50
2019-02-26T15:52:27.549Z,29.00
2019-02-26T15:54:58.735Z,29.60
2019-02-26T15:57:31.139Z,29.70
2019-02-26T16:00:06.290Z,28.60
2019-02-26T16:02:36.843Z,28.10
2019-02-26T16:05:09.245Z,28.30
2019-02-26T16:07:40.334Z,27.30
2019-02-26T16:10:12.035Z,27.00
2019-02-26T16:12:43.275Z,25.50
2019-02-26T16:15:14.771Z,24.90
2019-02-26T16:17:45.863Z,24.30
2019-02-26T16:20:18.817Z,23.40
2019-02-26T16:22:50.485Z,22.80
2019-02-26T16:25:21.930Z,22.80
2019-02-26T16:27:53.882Z,22.30
2019-02-26T16:30:25.907Z,22.20
2019-02-26T16:32:57.335Z,22.00
2019-02-26T16:35:28.647Z,21.80
2019-02-26T16:37:59.751Z,21.10
2019-02-26T16:40:32.316Z,20.60
2019-02-26T16:43:03.645Z,20.20
2019-02-26T16:45:35.287Z,20.10
2019-02-26T16:48:06.667Z,19.90
2019-02-26T16:50:37.971Z,19.60
2019-02-26T16:53:09.167Z,19.20
2019-02-26T16:55:40.459Z,18.70
2019-02-26T16:58:11.555Z,18.20
2019-02-26T17:00:43.288Z,17.80
2019-02-26T17:03:14.559Z,17.50
2019-02-26T17:05:47.645Z,17.10
2019-02-26T17:08:19.071Z,16.80
2019-02-26T17:10:50.412Z,16.40
2019-02-26T17:13:21.502Z,16.10
2019-02-26T17:15:53.415Z,15.90
2019-02-26T17:18:24.738Z,15.70
2019-02-26T17:20:56.988Z,15.50
2019-02-26T17:23:28.719Z,15.40
2019-02-26T17:26:00.579Z,15.20
2019-02-26T17:28:32.363Z,15.00
2019-02-26T17:31:03.759Z,14.90
2019-02-26T17:33:34.815Z,14.60
2019-02-26T17:36:06.111Z,14.50
2019-02-26T17:38:37.153Z,14.30
2019-02-26T17:41:09.961Z,14.20
2019-02-26T17:43:41.891Z,14.10
2019-02-26T17:46:13.515Z,14.00
2019-02-26T17:48:44.577Z,13.90
2019-02-26T17:51:18.746Z,13.80
2019-02-26T17:53:48.675Z,13.70
2019-02-26T17:56:20.055Z,13.50
2019-02-26T17:58:51.414Z,13.40
2019-02-26T18:01:22.727Z,13.20
2019-02-26T18:03:53.863Z,12.90
2019-02-26T18:06:25.337Z,12.70
2019-02-26T18:08:56.996Z,12.70
2019-02-26T18:11:28.231Z,12.50
2019-02-26T18:14:00.193Z,12.50
2019-02-26T18:16:34.383Z,12.40
2019-02-26T18:19:04.810Z,12.40
2019-02-26T18:21:36.015Z,12.30
2019-02-26T18:24:07.168Z,12.20
2019-02-26T18:26:38.575Z,12.10
2019-02-26T18:29:09.867Z,12.00
2019-02-26T18:31:41.104Z,11.90
2019-02-26T18:34:14.030Z,11.80
2019-02-26T18:36:45.998Z,11.60
2019-02-26T18:39:17.309Z,11.60
2019-02-26T18:41:50.784Z,11.50
2019-02-26T18:44:22.024Z,11.40
2019-02-26T18:46:53.383Z,11.30
2019-02-26T18:49:24.623Z,11.20
2019-02-26T18:51:55.961Z,11.20
2019-02-26T18:54:27.065Z,11.20
2019-02-26T18:56:58.617Z,11.00
2019-02-26T18:59:29.797Z,10.70
2019-02-26T19:02:03.319Z,10.60
2019-02-26T19:04:34.071Z,10.40
2019-02-26T19:07:05.587Z,10.10
2019-02-26T19:09:36.689Z,10.10
2019-02-26T19:12:08.499Z,9.90
2019-02-26T19:14:42.366Z,9.90
2019-02-26T19:17:13.045Z,9.80
2019-02-26T19:19:44.301Z,9.80
2019-02-26T19:22:15.552Z,9.80
2019-02-26T19:24:46.678Z,9.80
2019-02-26T19:27:19.392Z,9.80
2019-02-26T19:29:50.807Z,9.80
2019-02-26T19:32:22.263Z,9.90
2019-02-26T19:34:53.391Z,9.90
2019-02-26T19:37:24.853Z,9.90
2019-02-26T19:39:55.925Z,9.80
2019-02-26T19:42:27.265Z,9.70
2019-02-26T19:44:58.381Z,9.70
2019-02-26T19:47:29.649Z,9.70
2019-02-26T19:50:00.707Z,9.70
2019-02-26T19:52:32.156Z,9.60
2019-02-26T19:55:03.286Z,9.60
2019-02-26T19:57:34.741Z,9.60
2019-02-26T20:00:06.757Z,9.50
2019-02-26T20:02:39.906Z,9.30
2019-02-26T20:05:12.829Z,9.10
2019-02-26T20:07:44.339Z,9.10
2019-02-26T20:10:15.801Z,8.90
2019-02-26T20:12:47.243Z,8.80
2019-02-26T20:15:21.725Z,8.60
2019-02-26T20:17:51.284Z,8.60
2019-02-26T20:20:22.491Z,8.70
2019-02-26T20:22:53.873Z,8.60
2019-02-26T20:25:25.070Z,8.70
2019-02-26T20:28:04.825Z,8.70
2019-02-26T20:30:29.570Z,8.60
2019-02-26T20:33:01.554Z,8.60
2019-02-26T20:35:33.817Z,8.60
2019-02-26T20:38:05.211Z,8.60
2019-02-26T20:40:36.469Z,8.60
2019-02-26T20:43:08.039Z,8.60
2019-02-26T20:45:39.533Z,8.60
2019-02-26T20:48:11.023Z,8.50
2019-02-26T20:50:42.351Z,8.40
2019-02-26T20:53:14.487Z,8.30
2019-02-26T20:55:52.473Z,8.20
2019-02-26T20:58:19.768Z,8.20
2019-02-26T21:00:50.967Z,8.20
2019-02-26T21:03:22.794Z,8.00
2019-02-26T21:05:55.668Z,7.80
2019-02-26T21:08:30.784Z,7.60
2019-02-26T21:11:00.879Z,7.50
2019-02-26T21:13:34.674Z,7.20
2019-02-26T21:16:05.181Z,7.20
2019-02-26T21:18:39.342Z,7.20
2019-02-26T21:21:11.704Z,7.20
2019-02-26T21:23:43.613Z,7.10
2019-02-26T21:26:14.797Z,7.20
2019-02-26T21:28:46.318Z,7.30
2019-02-26T21:31:29.521Z,7.30
2019-02-26T21:34:03.746Z,7.20
2019-02-26T21:36:34.023Z,7.00
2019-02-26T21:39:10.880Z,7.00
2019-02-26T21:41:41.491Z,7.00
2019-02-26T21:44:12.924Z,6.90
2019-02-26T21:46:44.153Z,7.00
2019-02-26T21:49:15.643Z,6.90
2019-02-26T21:51:46.921Z,6.90
2019-02-26T21:54:18.451Z,6.90
2019-02-26T21:56:49.681Z,6.70
2019-02-26T21:59:21.137Z,6.50
2019-02-26T22:01:52.419Z,6.50
2019-02-26T22:04:24.187Z,6.50
2019-02-26T22:06:55.377Z,6.40
2019-02-26T22:09:29.954Z,6.30
2019-02-26T22:11:59.735Z,6.10
2019-02-26T22:14:31.414Z,6.10
2019-02-26T22:17:04.318Z,6.20
2019-02-26T22:19:37.751Z,6.10
2019-02-26T22:22:08.873Z,6.10
2019-02-26T22:24:40.795Z,6.10
2019-02-26T22:27:12.109Z,6.10
2019-02-26T22:29:55.131Z,6.10
2019-02-26T22:32:26.413Z,6.20
2019-02-26T22:34:57.857Z,6.20
2019-02-26T22:37:29.067Z,6.20
2019-02-26T22:40:00.668Z,6.10
2019-02-26T22:42:31.971Z,6.00
2019-02-26T22:45:03.393Z,5.90
2019-02-26T22:47:34.947Z,5.90
2019-02-26T22:50:07.903Z,5.90
2019-02-26T22:52:39.503Z,5.90
2019-02-26T22:55:16.011Z,5.90
2019-02-26T22:57:44.160Z,5.90
2019-02-26T23:00:35.587Z,5.80
2019-02-26T23:03:10.733Z,5.70
2019-02-26T23:05:41.695Z,5.40
2019-02-26T23:08:13.094Z,5.40
2019-02-26T23:10:57.504Z,5.40
2019-02-26T23:13:31.868Z,5.30
2019-02-26T23:16:03.187Z,5.30
2019-02-26T23:18:35.000Z,5.20
2019-02-26T23:21:07.271Z,5.20
2019-02-26T23:23:38.650Z,5.20
2019-02-26T23:26:10.843Z,5.00
2019-02-26T23:28:42.621Z,5.10
2019-02-26T23:31:16.194Z,5.10
2019-02-26T23:33:48.444Z,5.00
2019-02-26T23:36:20.427Z,4.90
2019-02-26T23:38:51.601Z,5.00
2019-02-26T23:41:24.352Z,4.90
2019-02-26T23:43:55.523Z,4.90
2019-02-26T23:46:29.531Z,4.80
2019-02-26T23:48:59.751Z,4.80
2019-02-26T23:51:31.283Z,4.80
2019-02-26T23:54:04.689Z,4.80
2019-02-26T23:56:35.619Z,4.80
2019-02-26T23:59:06.899Z,4.90
